createdAt,value
2019-04-21T00:00:58.599Z,14.20
2019-04-21T00:03:33.365Z,14.10
2019-04-21T00:06:20.103Z,14.00
2019-04-21T00:08:50.545Z,13.90
2019-04-21T00:11:26.470Z,13.90
2019-04-21T00:13:49.727Z,13.90
2019-04-21T00:16:10.671Z,13.80
2019-04-21T00:19:03.428Z,13.80
2019-04-21T00:21:37.773Z,13.80
2019-04-21T00:24:24.885Z,13.60
2019-04-21T00:27:03.915Z,13.50
2019-04-21T00:29:38.516Z,13.40
2019-04-21T00:32:03.344Z,13.30
2019-04-21T00:34:21.722Z,13.20
2019-04-21T00:37:05.034Z,13.10
2019-04-21T00:42:14.164Z,13.10
2019-04-21T00:44:38.873Z,13.00
2019-04-21T00:47:24.114Z,13.00
2019-04-21T00:49:59.103Z,13.00
2019-04-21T00:55:20.199Z,12.90
2019-04-21T00:57:51.954Z,12.90
2019-04-21T01:00:20.343Z,12.90
2019-04-21T01:02:56.034Z,12.90
2019-04-21T01:05:22.532Z,12.80
2019-04-21T01:07:50.335Z,12.80
2019-04-21T01:10:20.789Z,12.70
2019-04-21T01:13:02.971Z,12.70
2019-04-21T01:15:37.278Z,12.60
2019-04-21T01:18:06.150Z,12.60
2019-04-21T01:20:18.659Z,12.50
2019-04-21T01:22:49.006Z,12.50
2019-04-21T01:25:28.209Z,12.40
2019-04-21T01:28:09.969Z,12.40
2019-04-21T01:30:50.326Z,12.40
2019-04-21T01:33:12.504Z,12.30
2019-04-21T01:35:48.441Z,12.30
2019-04-21T01:38:23.802Z,12.20
2019-04-21T01:40:57.152Z,12.20
2019-04-21T01:43:24.954Z,12.20
2019-04-21T01:45:53.916Z,12.10
2019-04-21T01:48:25.738Z,12.00
2019-04-21T01:50:55.528Z,12.00
2019-04-21T01:53:42.432Z,12.00
2019-04-21T01:56:30.084Z,11.90
2019-04-21T01:58:51.761Z,11.80
2019-04-21T02:01:33.634Z,11.80
2019-04-21T02:04:09.412Z,11.60
2019-04-21T02:06:39.521Z,11.50
2019-04-21T02:09:09.779Z,11.30
2019-04-21T02:11:53.388Z,11.30
2019-04-21T02:14:19.617Z,11.20
2019-04-21T02:16:47.548Z,11.10
2019-04-21T02:19:16.677Z,11.00
2019-04-21T02:21:43.601Z,10.90
2019-04-21T02:24:31.592Z,10.80
2019-04-21T02:26:59.429Z,10.50
2019-04-21T02:32:10.565Z,10.40
2019-04-21T02:34:52.983Z,10.30
2019-04-21T02:37:27.162Z,10.10
2019-04-21T02:39:49.802Z,10.10
2019-04-21T02:47:27.545Z,9.70
2019-04-21T02:50:01.966Z,9.60
2019-04-21T02:52:31.089Z,9.50
2019-04-21T02:54:55.632Z,9.40
2019-04-21T03:00:16.928Z,9.20
2019-04-21T03:02:54.609Z,9.10
2019-04-21T03:05:50.499Z,9.00
2019-04-21T03:08:18.754Z,8.80
2019-04-21T03:10:43.320Z,8.60
2019-04-21T03:13:25.061Z,8.40
2019-04-21T03:18:36.453Z,8.30
2019-04-21T03:20:53.182Z,8.30
2019-04-21T03:23:33.656Z,8.30
2019-04-21T03:25:59.046Z,8.30
2019-04-21T03:28:32.320Z,8.30
2019-04-21T03:34:15.627Z,8.20
2019-04-21T03:38:43.130Z,8.20
2019-04-21T03:41:04.167Z,8.20
2019-04-21T03:43:36.192Z,8.10
2019-04-21T03:46:11.980Z,8.00
2019-04-21T03:48:40.657Z,7.80
2019-04-21T03:51:22.483Z,7.90
2019-04-21T03:53:49.184Z,7.80
2019-04-21T03:56:27.519Z,7.70
2019-04-21T03:58:54.155Z,7.70
2019-04-21T04:01:48.668Z,7.70
2019-04-21T04:04:35.601Z,7.70
2019-04-21T04:07:31.183Z,7.80
2019-04-21T04:15:28.137Z,7.80
2019-04-21T04:17:46.465Z,7.70
2019-04-21T04:20:19.163Z,7.80
2019-04-21T04:22:51.760Z,7.80
2019-04-21T04:25:15.756Z,7.80
2019-04-21T04:27:59.883Z,7.80
2019-04-21T04:30:23.649Z,7.80
2019-04-21T04:32:53.781Z,7.70
2019-04-21T04:35:22.091Z,7.70
2019-04-21T04:37:55.959Z,7.60
2019-04-21T04:40:30.909Z,7.50
2019-04-21T04:50:50.106Z,7.40
2019-04-21T04:53:20.432Z,7.40
2019-04-21T04:55:48.033Z,7.40
2019-04-21T04:58:25.142Z,7.30
2019-04-21T05:01:08.692Z,7.40
2019-04-21T05:06:37.235Z,7.40
2019-04-21T05:14:02.980Z,7.30
2019-04-21T05:24:09.743Z,7.60
2019-04-21T05:26:23.039Z,7.70
2019-04-21T05:28:50.977Z,7.80
2019-04-21T05:31:44.645Z,7.90
2019-04-21T05:34:18.943Z,8.00
2019-04-21T05:37:10.757Z,8.10
2019-04-21T05:39:41.960Z,8.20
2019-04-21T05:42:06.417Z,8.30
2019-04-21T05:44:58.323Z,8.40
2019-04-21T05:47:34.916Z,8.50
2019-04-21T05:50:02.915Z,8.60
2019-04-21T05:52:45.936Z,8.70
2019-04-21T05:55:34.336Z,8.90
2019-04-21T05:57:57.317Z,9.00
2019-04-21T06:03:04.042Z,9.20
2019-04-21T06:08:09.951Z,9.50
2019-04-21T06:10:41.906Z,9.80
2019-04-21T06:13:19.922Z,10.10
2019-04-21T06:15:52.078Z,10.30
2019-04-21T06:18:20.247Z,10.50
2019-04-21T06:20:47.987Z,10.70
2019-04-21T06:23:22.413Z,10.80
2019-04-21T06:28:28.702Z,11.10
2019-04-21T06:31:05.424Z,11.20
2019-04-21T06:33:44.634Z,11.30
2019-04-21T06:41:35.386Z,11.70
2019-04-21T06:44:08.189Z,11.80
2019-04-21T06:46:39.284Z,11.90
2019-04-21T06:49:20.501Z,12.00
2019-04-21T06:51:55.987Z,12.10
2019-04-21T06:56:58.611Z,12.30
2019-04-21T06:59:13.491Z,12.40
2019-04-21T07:01:48.799Z,12.60
2019-04-21T07:04:37.758Z,12.70
2019-04-21T07:06:54.952Z,12.80
2019-04-21T07:09:26.983Z,13.00
2019-04-21T07:11:55.036Z,13.20
2019-04-21T07:14:31.993Z,13.30
2019-04-21T07:17:06.395Z,13.40
2019-04-21T07:19:35.151Z,13.60
2019-04-21T07:22:03.104Z,13.80
2019-04-21T07:24:37.292Z,13.90
2019-04-21T07:27:13.080Z,14.10
2019-04-21T07:29:50.682Z,14.30
2019-04-21T07:32:27.793Z,14.50
2019-04-21T07:34:46.102Z,14.70
2019-04-21T07:37:11.648Z,14.80
2019-04-21T07:39:45.258Z,15.00
2019-04-21T07:42:13.422Z,15.20
2019-04-21T07:44:46.062Z,15.40
2019-04-21T07:47:27.187Z,15.50
2019-04-21T07:50:14.876Z,15.70
2019-04-21T07:53:06.990Z,15.80
2019-04-21T07:58:02.610Z,16.20
2019-04-21T08:00:45.352Z,16.40
2019-04-21T08:03:15.578Z,16.50
2019-04-21T08:05:47.054Z,16.70
2019-04-21T08:08:09.521Z,16.90
2019-04-21T08:10:47.466Z,17.00
2019-04-21T08:13:31.364Z,17.10
2019-04-21T08:15:51.051Z,17.30
2019-04-21T08:18:20.565Z,17.40
2019-04-21T08:20:54.934Z,17.50
2019-04-21T08:23:29.931Z,17.70
2019-04-21T08:28:34.594Z,18.00
2019-04-21T08:31:06.683Z,18.10
2019-04-21T08:33:41.464Z,18.30
2019-04-21T08:36:24.713Z,18.30
2019-04-21T08:38:45.862Z,18.40
2019-04-21T08:41:08.089Z,18.60
2019-04-21T08:51:31.971Z,19.20
2019-04-21T08:53:57.457Z,19.20
2019-04-21T08:56:40.159Z,19.30
2019-04-21T08:59:47.160Z,19.50
2019-04-21T09:05:09.445Z,19.80
2019-04-21T09:10:13.716Z,20.00
2019-04-21T09:12:43.239Z,20.10
2019-04-21T09:15:14.398Z,20.20
2019-04-21T09:17:41.146Z,20.30
2019-04-21T09:20:25.106Z,20.50
2019-04-21T09:22:50.902Z,20.60
2019-04-21T09:25:28.594Z,20.60
2019-04-21T09:27:55.017Z,20.70
2019-04-21T09:30:10.781Z,20.70
2019-04-21T09:32:42.464Z,20.80
2019-04-21T09:35:16.635Z,20.80
2019-04-21T09:37:53.373Z,21.00
2019-04-21T09:40:27.364Z,21.00
2019-04-21T09:42:57.493Z,21.00
2019-04-21T09:45:24.327Z,21.10
2019-04-21T09:48:02.647Z,21.20
2019-04-21T09:50:26.806Z,21.30
2019-04-21T09:53:04.015Z,21.40
2019-04-21T09:55:39.565Z,21.40
2019-04-21T09:58:09.932Z,21.50
2019-04-21T10:00:47.637Z,21.50
2019-04-21T10:03:09.882Z,21.70
2019-04-21T10:05:38.426Z,21.70
2019-04-21T10:08:10.321Z,21.80
2019-04-21T10:10:40.678Z,21.80
2019-04-21T10:13:11.005Z,21.90
2019-04-21T10:15:41.948Z,21.90
2019-04-21T10:18:17.250Z,22.00
2019-04-21T10:20:49.192Z,22.00
2019-04-21T10:23:19.531Z,22.10
2019-04-21T10:25:50.594Z,22.20
2019-04-21T10:28:21.213Z,22.30
2019-04-21T10:30:52.825Z,22.40
2019-04-21T10:33:24.101Z,22.50
2019-04-21T10:35:55.161Z,22.70
2019-04-21T10:38:33.161Z,22.90
2019-04-21T10:40:57.429Z,23.10
2019-04-21T10:43:29.167Z,23.30
2019-04-21T10:45:59.570Z,23.60
2019-04-21T10:48:31.707Z,23.80
2019-04-21T10:51:02.008Z,24.10
2019-04-21T10:53:36.718Z,24.30
2019-04-21T10:56:17.346Z,24.60
2019-04-21T10:58:42.282Z,24.80
2019-04-21T11:01:18.963Z,25.00
2019-04-21T11:03:56.496Z,25.20
2019-04-21T11:06:26.687Z,25.40
2019-04-21T11:08:59.086Z,25.60
2019-04-21T11:11:30.056Z,25.70
2019-04-21T11:14:02.259Z,26.00
2019-04-21T11:16:33.258Z,26.20
2019-04-21T11:19:04.061Z,26.30
2019-04-21T11:21:34.716Z,26.50
2019-04-21T11:24:06.040Z,26.60
2019-04-21T11:26:36.458Z,26.80
2019-04-21T11:29:07.286Z,27.10
2019-04-21T11:31:38.920Z,27.30
2019-04-21T11:34:09.411Z,27.40
2019-04-21T11:36:40.444Z,27.60
2019-04-21T11:39:34.793Z,27.70
2019-04-21T11:41:57.695Z,27.80
2019-04-21T11:44:29.049Z,28.00
2019-04-21T11:47:00.549Z,28.00
2019-04-21T11:49:32.515Z,28.00
2019-04-21T11:52:03.087Z,28.20
2019-04-21T11:54:33.404Z,28.30
2019-04-21T11:57:12.381Z,28.50
2019-04-21T11:59:35.798Z,28.70
2019-04-21T12:02:06.161Z,28.90
2019-04-21T12:04:36.444Z,29.00
2019-04-21T12:07:07.192Z,29.10
2019-04-21T12:09:37.806Z,29.20
2019-04-21T12:12:09.588Z,29.30
2019-04-21T12:14:39.876Z,29.50
2019-04-21T12:17:10.300Z,29.50
2019-04-21T12:19:40.888Z,29.60
2019-04-21T12:22:20.170Z,29.80
2019-04-21T12:24:43.434Z,29.90
2019-04-21T12:27:14.025Z,30.00
2019-04-21T12:29:45.802Z,30.20
2019-04-21T12:32:36.036Z,30.20
2019-04-21T12:35:08.192Z,30.30
2019-04-21T12:37:38.664Z,30.40
2019-04-21T12:40:10.420Z,30.60
2019-04-21T12:42:42.102Z,30.70
2019-04-21T12:45:13.176Z,30.70
2019-04-21T12:47:43.987Z,30.80
2019-04-21T12:50:14.888Z,30.90
2019-04-21T12:52:45.369Z,31.10
2019-04-21T12:55:15.733Z,31.20
2019-04-21T12:57:45.983Z,31.20
2019-04-21T13:00:18.680Z,31.20
2019-04-21T13:02:49.795Z,31.30
2019-04-21T13:05:20.251Z,31.50
2019-04-21T13:07:51.199Z,31.60
2019-04-21T13:10:22.239Z,31.70
2019-04-21T13:12:52.684Z,31.80
2019-04-21T13:15:22.981Z,31.90
2019-04-21T13:17:54.225Z,31.90
2019-04-21T13:20:25.393Z,31.90
2019-04-21T13:22:55.936Z,32.00
2019-04-21T13:25:32.168Z,32.10
2019-04-21T13:28:02.862Z,32.30
2019-04-21T13:30:33.386Z,32.50
2019-04-21T13:33:05.043Z,32.50
2019-04-21T13:35:37.090Z,32.40
2019-04-21T13:38:18.662Z,32.40
2019-04-21T13:41:15.011Z,32.60
2019-04-21T13:43:32.858Z,32.70
2019-04-21T13:46:03.837Z,32.70
2019-04-21T13:48:34.713Z,32.80
2019-04-21T13:51:05.409Z,32.80
2019-04-21T13:53:36.344Z,32.80
2019-04-21T13:56:08.904Z,32.80
2019-04-21T13:58:40.138Z,32.80
2019-04-21T14:01:11.730Z,32.90
2019-04-21T14:03:43.902Z,33.00
2019-04-21T14:06:14.313Z,33.20
2019-04-21T14:08:45.364Z,33.20
2019-04-21T14:11:17.548Z,33.00
2019-04-21T14:13:48.250Z,32.90
2019-04-21T14:16:20.256Z,33.00
2019-04-21T14:18:51.735Z,32.70
2019-04-21T14:21:23.190Z,32.60
2019-04-21T14:23:54.559Z,32.50
2019-04-21T14:26:26.826Z,32.20
2019-04-21T14:28:57.323Z,32.10
2019-04-21T14:31:28.415Z,31.90
2019-04-21T14:33:59.667Z,31.90
2019-04-21T14:36:30.731Z,32.20
2019-04-21T14:39:01.052Z,32.20
2019-04-21T14:41:32.496Z,32.50
2019-04-21T14:44:02.943Z,32.80
2019-04-21T14:46:39.541Z,33.20
2019-04-21T14:49:21.363Z,33.80
2019-04-21T14:51:56.832Z,34.50
2019-04-21T14:54:50.840Z,35.50
2019-04-21T14:57:21.390Z,36.20
2019-04-21T14:59:52.770Z,36.70
2019-04-21T15:02:23.365Z,37.10
2019-04-21T15:04:53.784Z,37.30
2019-04-21T15:07:25.356Z,37.50
2019-04-21T15:10:04.671Z,37.50
2019-04-21T15:12:27.882Z,37.60
2019-04-21T15:14:58.266Z,37.30
2019-04-21T15:17:29.361Z,37.30
2019-04-21T15:20:06.573Z,37.20
2019-04-21T15:22:32.314Z,36.80
2019-04-21T15:25:02.888Z,36.30
2019-04-21T15:27:34.770Z,35.90
2019-04-21T15:30:06.959Z,35.60
2019-04-21T15:32:37.404Z,35.30
2019-04-21T15:35:09.085Z,35.00
2019-04-21T15:37:39.884Z,34.60
2019-04-21T15:40:21.679Z,34.10
2019-04-21T15:42:44.280Z,33.80
2019-04-21T15:45:14.781Z,33.50
2019-04-21T15:47:46.168Z,33.20
2019-04-21T15:50:19.392Z,32.90
2019-04-21T15:52:49.797Z,32.60
2019-04-21T15:55:44.977Z,32.30
2019-04-21T15:58:46.581Z,32.00
2019-04-21T16:01:25.149Z,31.70
2019-04-21T16:03:58.479Z,31.50
2019-04-21T16:06:27.756Z,31.30
2019-04-21T16:09:00.964Z,31.20
2019-04-21T16:11:31.491Z,31.10
2019-04-21T16:14:03.627Z,30.90
2019-04-21T16:16:34.611Z,30.80
2019-04-21T16:19:06.227Z,30.60
2019-04-21T16:21:40.256Z,30.60
2019-04-21T16:24:08.888Z,30.50
2019-04-21T16:26:40.532Z,30.50
2019-04-21T16:29:11.330Z,30.40
2019-04-21T16:31:42.663Z,30.30
2019-04-21T16:34:15.699Z,30.30
2019-04-21T16:36:45.671Z,30.20
2019-04-21T16:39:17.560Z,30.20
2019-04-21T16:41:48.050Z,30.20
2019-04-21T16:44:18.853Z,30.00
2019-04-21T16:46:49.607Z,29.80
2019-04-21T16:49:20.013Z,29.60
2019-04-21T16:52:10.047Z,29.50
2019-04-21T16:54:41.943Z,29.20
2019-04-21T16:57:21.710Z,28.90
2019-04-21T16:59:54.893Z,28.60
2019-04-21T17:02:25.322Z,28.20
2019-04-21T17:04:56.263Z,28.10
2019-04-21T17:07:28.172Z,28.00
2019-04-21T17:09:58.925Z,27.80
2019-04-21T17:12:30.684Z,27.70
2019-04-21T17:15:18.789Z,27.50
2019-04-21T17:17:54.338Z,27.30
2019-04-21T17:20:21.675Z,27.20
2019-04-21T17:22:37.636Z,27.00
2019-04-21T17:25:08.717Z,26.80
2019-04-21T17:27:39.116Z,26.50
2019-04-21T17:30:10.945Z,26.30
2019-04-21T17:32:45.926Z,26.20
2019-04-21T17:35:14.309Z,26.10
2019-04-21T17:37:45.868Z,25.90
2019-04-21T17:40:22.282Z,25.80
2019-04-21T17:43:01.316Z,25.60
2019-04-21T17:45:24.873Z,25.40
2019-04-21T17:48:02.399Z,25.30
2019-04-21T17:50:59.301Z,25.20
2019-04-21T17:53:40.191Z,25.10
2019-04-21T17:56:33.885Z,25.00
2019-04-21T17:58:58.435Z,24.90
2019-04-21T18:01:32.254Z,24.80
2019-04-21T18:04:10.841Z,24.60
2019-04-21T18:06:53.024Z,24.50
2019-04-21T18:09:40.131Z,24.40
2019-04-21T18:11:59.443Z,24.20
2019-04-21T18:14:13.962Z,24.10
2019-04-21T18:16:47.867Z,24.00
2019-04-21T18:19:20.579Z,23.80
2019-04-21T18:21:59.543Z,23.70
2019-04-21T18:24:40.699Z,23.60
2019-04-21T18:27:05.684Z,23.40
2019-04-21T18:29:34.481Z,23.20
2019-04-21T18:32:06.212Z,23.10
2019-04-21T18:34:57.943Z,22.80
2019-04-21T18:38:08.004Z,22.70
2019-04-21T18:40:34.775Z,22.40
2019-04-21T18:43:44.971Z,22.20
2019-04-21T18:46:14.875Z,21.90
2019-04-21T18:48:41.173Z,21.80
2019-04-21T18:51:23.848Z,21.50
2019-04-21T18:54:19.372Z,21.30
2019-04-21T18:56:29.681Z,21.20
2019-04-21T18:59:00.706Z,21.00
2019-04-21T19:01:33.497Z,20.80
2019-04-21T19:04:06.319Z,20.80
2019-04-21T19:06:51.698Z,20.60
2019-04-21T19:09:35.844Z,20.40
2019-04-21T19:12:05.230Z,20.30
2019-04-21T19:14:47.507Z,20.20
2019-04-21T19:17:29.147Z,20.00
2019-04-21T19:19:46.731Z,19.90
2019-04-21T19:22:14.053Z,19.80
2019-04-21T19:25:00.830Z,19.70
2019-04-21T19:27:19.212Z,19.60
2019-04-21T19:29:57.203Z,19.40
2019-04-21T19:32:19.892Z,19.30
2019-04-21T19:34:36.731Z,19.30
2019-04-21T19:37:11.570Z,19.10
2019-04-21T19:39:52.723Z,19.00
2019-04-21T19:42:18.312Z,19.00
2019-04-21T19:44:56.528Z,18.90
2019-04-21T19:47:34.688Z,18.80
2019-04-21T19:50:01.451Z,18.60
2019-04-21T19:52:30.937Z,18.60
2019-04-21T19:54:50.548Z,18.50
2019-04-21T19:57:20.963Z,18.40
2019-04-21T19:59:55.330Z,18.40
2019-04-21T20:02:24.704Z,18.30
2019-04-21T20:05:03.085Z,18.30
2019-04-21T20:07:44.371Z,18.20
2019-04-21T20:10:23.735Z,18.10
2019-04-21T20:12:49.920Z,18.10
2019-04-21T20:15:30.388Z,18.00
2019-04-21T20:17:50.322Z,18.00
2019-04-21T20:20:08.993Z,18.00
2019-04-21T20:22:43.583Z,17.80
2019-04-21T20:25:16.119Z,17.80
2019-04-21T20:27:54.298Z,17.60
2019-04-21T20:30:32.842Z,17.60
2019-04-21T20:33:20.237Z,17.60
2019-04-21T20:35:46.581Z,17.50
2019-04-21T20:38:09.256Z,17.50
2019-04-21T20:40:35.932Z,17.40
2019-04-21T20:43:17.707Z,17.40
2019-04-21T20:45:49.431Z,17.30
2019-04-21T20:48:10.863Z,17.30
2019-04-21T20:50:41.789Z,17.20
2019-04-21T20:53:24.032Z,17.00
2019-04-21T20:55:47.754Z,17.00
2019-04-21T20:58:23.667Z,16.90
2019-04-21T21:01:20.863Z,16.90
2019-04-21T21:03:34.030Z,16.80
2019-04-21T21:05:54.349Z,16.70
2019-04-21T21:08:35.805Z,16.70
2019-04-21T21:11:03.799Z,16.70
2019-04-21T21:13:52.262Z,16.70
2019-04-21T21:16:17.955Z,16.70
2019-04-21T21:18:56.202Z,16.60
2019-04-21T21:21:11.794Z,16.50
2019-04-21T21:23:51.374Z,16.40
2019-04-21T21:26:21.763Z,16.40
2019-04-21T21:28:42.977Z,16.40
2019-04-21T21:31:19.055Z,16.30
2019-04-21T21:34:06.329Z,16.30
2019-04-21T21:36:27.443Z,16.20
2019-04-21T21:38:59.828Z,16.20
2019-04-21T21:41:21.273Z,16.10
2019-04-21T21:43:46.851Z,16.00
2019-04-21T21:46:36.865Z,16.00
2019-04-21T21:48:58.174Z,15.90
2019-04-21T21:51:33.190Z,15.80
2019-04-21T21:53:52.704Z,15.70
2019-04-21T21:56:24.610Z,15.60
2019-04-21T21:58:55.636Z,15.50
2019-04-21T22:01:31.912Z,15.50
2019-04-21T22:04:09.171Z,15.40
2019-04-21T22:06:44.639Z,15.40
2019-04-21T22:09:06.237Z,15.30
2019-04-21T22:11:37.817Z,15.20
2019-04-21T22:14:11.619Z,15.20
2019-04-21T22:16:51.749Z,15.10
2019-04-21T22:19:32.485Z,15.00
2019-04-21T22:22:05.169Z,15.00
2019-04-21T22:24:33.851Z,14.90
2019-04-21T22:26:49.367Z,14.70
2019-04-21T22:29:19.850Z,14.50
2019-04-21T22:31:52.759Z,14.30
2019-04-21T22:34:29.631Z,14.30
2019-04-21T22:37:01.571Z,14.20
2019-04-21T22:39:44.978Z,14.20
2019-04-21T22:42:05.569Z,14.20
2019-04-21T22:44:30.206Z,14.10
2019-04-21T22:47:10.981Z,14.00
2019-04-21T22:49:32.682Z,13.90
2019-04-21T22:52:10.375Z,13.90
2019-04-21T22:54:39.660Z,13.90
2019-04-21T22:57:14.167Z,13.80
2019-04-21T22:59:40.433Z,13.80
2019-04-21T23:02:15.349Z,13.70
2019-04-21T23:04:47.587Z,13.60
2019-04-21T23:07:18.713Z,13.60
2019-04-21T23:09:47.531Z,13.60
2019-04-21T23:12:20.518Z,13.50
2019-04-21T23:14:58.582Z,13.40
2019-04-21T23:17:42.248Z,13.40
2019-04-21T23:20:19.522Z,13.30
2019-04-21T23:22:56.889Z,13.30
2019-04-21T23:25:20.673Z,13.20
2019-04-21T23:27:47.997Z,13.20
2019-04-21T23:30:26.435Z,13.20
2019-04-21T23:32:46.338Z,13.10
2019-04-21T23:35:14.372Z,13.10
2019-04-21T23:37:50.075Z,13.00
2019-04-21T23:40:18.146Z,13.00
2019-04-21T23:42:45.527Z,13.00
2019-04-21T23:45:19.559Z,12.90
2019-04-21T23:48:06.962Z,12.90
2019-04-21T23:50:34.281Z,12.90
2019-04-21T23:52:53.528Z,12.80
2019-04-21T23:55:25.228Z,12.80
2019-04-21T23:58:06.119Z,12.80
